Time;durP1;ratioP1;P1;durP2;ratioP2;P2;SDS_P1;SDS_P2;PMS_P1;PMS_P2;Temp;Humidity;BMP_temperature;BMP_pressure;BME280_temperature;BME280_humidity;BME280_pressure;Samples;Min_cycle;Max_cycle;Signal;HPM_P1;HPM_P2
2024/03/17 00:00:03;;;;;;;29.75;22.13;;;;;;;4.32;74.36;93670.63;520780;28;1150;-71
2024/03/17 00:00:18;;;;;;;33.05;22.13;;;;;;;4.47;74.44;93694.91;520735;28;828;-72
2024/03/17 00:00:34;;;;;;;32.05;21.13;;;;;;;4.44;74.21;93693.91;520485;28;1484;-71
2024/03/17 00:00:50;;;;;;;29.55;21.00;;;;;;;4.42;74.88;93690.19;522773;28;832;-71
2024/03/17 00:01:06;;;;;;;28.60;20.63;;;;;;;4.42;74.80;93703.84;522028;28;773;-71
2024/03/17 00:01:22;;;;;;;26.57;19.20;;;;;;;4.41;74.85;93694.94;522111;28;1376;-71
2024/03/17 00:01:38;;;;;;;26.30;18.97;;;;;;;4.44;75.10;93693.91;521692;28;1585;-71
2024/03/17 00:01:53;;;;;;;24.75;18.73;;;;;;;4.47;74.75;93695.66;521785;28;1396;-71
2024/03/17 00:02:09;;;;;;;24.48;19.17;;;;;;;4.34;75.11;93676.31;521754;28;1432;-71
2024/03/17 00:02:24;;;;;;;28.97;20.87;;;;;;;4.53;74.98;93696.38;521726;28;1456;-71
2024/03/17 00:02:40;;;;;;;31.15;20.95;;;;;;;4.56;74.68;93695.38;521907;28;1551;-71
2024/03/17 00:02:56;;;;;;;27.58;19.65;;;;;;;4.58;74.35;93695.59;521364;28;1421;-71
2024/03/17 00:03:12;;;;;;;27.80;20.15;;;;;;;4.61;74.23;93697.31;521164;28;1364;-71
2024/03/17 00:03:28;;;;;;;29.00;20.23;;;;;;;4.61;74.43;93700.06;522177;28;1390;-71
2024/03/17 00:03:43;;;;;;;29.23;20.70;;;;;;;4.59;74.65;93702.56;519918;28;1367;-71
2024/03/17 00:03:59;;;;;;;28.80;20.20;;;;;;;4.55;74.54;93693.13;519329;28;1510;-71
2024/03/17 00:04:14;;;;;;;29.17;20.07;;;;;;;4.56;74.48;93695.38;519020;28;796;-71
2024/03/17 00:04:30;;;;;;;30.90;20.80;;;;;;;4.58;74.60;93695.59;520533;28;829;-71
2024/03/17 00:04:46;;;;;;;29.13;20.47;;;;;;;4.55;74.59;93684.91;520970;28;1019;-71
2024/03/17 00:05:01;;;;;;;29.52;21.33;;;;;;;4.61;74.58;93693.88;522243;28;1476;-71
2024/03/17 00:05:18;;;;;;;30.27;21.03;;;;;;;4.63;74.27;93697.56;522040;28;1453;-71
2024/03/17 00:05:35;;;;;;;29.00;20.55;;;;;;;4.60;74.55;93695.84;521398;28;1328;-71
2024/03/17 00:05:58;;;;;;;28.23;20.25;;;;;;;4.58;74.90;93697.59;521640;28;1295;-71
2024/03/17 00:06:14;;;;;;;27.98;20.52;;;;;;;4.55;74.90;93696.59;521132;28;1563;-71
2024/03/17 00:06:30;;;;;;;28.37;21.10;;;;;;;4.50;74.43;93693.91;522381;28;902;-71
2024/03/17 00:06:45;;;;;;;30.02;21.52;;;;;;;4.56;75.25;93703.56;522225;28;1314;-71
2024/03/17 00:07:01;;;;;;;29.73;21.50;;;;;;;4.57;75.03;93699.56;521660;28;1316;-71
2024/03/17 00:07:16;;;;;;;30.43;21.70;;;;;;;4.57;75.15;93699.56;521737;28;1556;-70
2024/03/17 00:07:32;;;;;;;29.45;21.17;;;;;;;4.59;74.86;93702.56;521471;28;1469;-71
2024/03/17 00:07:48;;;;;;;28.83;20.83;;;;;;;4.62;74.50;93703.53;521285;28;1377;-71
2024/03/17 00:08:04;;;;;;;28.27;20.58;;;;;;;4.61;75.22;93702.06;523294;28;890;-71
2024/03/17 00:08:21;;;;;;;27.60;20.33;;;;;;;4.63;74.83;93696.09;522213;28;868;-71
2024/03/17 00:08:36;;;;;;;29.63;21.00;;;;;;;4.62;74.91;93695.34;522539;28;1475;-71
2024/03/17 00:08:52;;;;;;;31.77;21.95;;;;;;;4.61;74.39;93700.06;522745;28;1364;-71
2024/03/17 00:09:09;;;;;;;29.90;21.73;;;;;;;4.61;74.55;93693.88;521696;28;1368;-71
2024/03/17 00:09:25;;;;;;;29.75;21.75;;;;;;;4.60;74.59;93697.84;521610;28;919;-71
2024/03/17 00:09:41;;;;;;;32.45;22.38;;;;;;;4.60;74.44;93695.84;521602;28;1439;-71
2024/03/17 00:09:56;;;;;;;32.55;22.13;;;;;;;4.41;74.89;93666.84;522390;28;1433;-71
2024/03/17 00:10:12;;;;;;;30.15;21.17;;;;;;;4.61;74.96;93705.53;522309;28;1404;-71
2024/03/17 00:10:27;;;;;;;29.13;20.70;;;;;;;4.61;74.83;93686.38;522710;28;1486;-71
2024/03/17 00:10:42;;;;;;;29.75;20.58;;;;;;;4.63;74.68;93704.28;522750;28;1666;-71
2024/03/17 00:10:58;;;;;;;30.43;20.80;;;;;;;4.63;74.59;93696.09;523800;28;891;-71
2024/03/17 00:11:13;;;;;;;31.23;21.33;;;;;;;4.66;74.60;93700.56;523713;28;1406;-71
2024/03/17 00:11:29;;;;;;;31.75;22.20;;;;;;;4.67;74.74;93691.09;522820;28;847;-71
2024/03/17 00:11:45;;;;;;;28.53;20.33;;;;;;;4.68;74.28;93703.53;521018;28;1427;-71
2024/03/17 00:12:00;;;;;;;23.05;17.05;;;;;;;4.69;74.77;93696.81;521931;28;1409;-71
2024/03/17 00:12:16;;;;;;;23.30;16.40;;;;;;;4.70;74.30;93699.03;522528;28;1483;-71
2024/03/17 00:12:31;;;;;;;26.97;17.90;;;;;;;4.72;74.01;93698.53;522915;28;815;-71
2024/03/17 00:12:47;;;;;;;26.08;18.10;;;;;;;4.74;74.42;93696.78;522945;28;828;-71
2024/03/17 00:13:02;;;;;;;23.47;17.50;;;;;;;4.75;74.57;93697.50;521118;28;1398;-71
2024/03/17 00:13:18;;;;;;;22.40;17.00;;;;;;;4.72;74.40;93695.81;522098;28;876;-71
2024/03/17 00:13:33;;;;;;;22.90;16.15;;;;;;;4.76;74.01;93701.75;520771;28;1365;-71
2024/03/17 00:13:49;;;;;;;23.87;16.03;;;;;;;4.76;74.28;93693.53;522826;28;765;-71
2024/03/17 00:14:05;;;;;;;20.77;15.23;;;;;;;4.78;74.53;93704.72;522144;28;1313;-71
2024/03/17 00:14:21;;;;;;;19.92;14.45;;;;;;;4.79;74.06;93697.97;521575;28;1975;-71
2024/03/17 00:14:37;;;;;;;19.73;13.90;;;;;;;4.79;73.89;93701.47;521734;28;1419;-71
2024/03/17 00:14:52;;;;;;;19.07;13.77;;;;;;;4.81;74.07;93693.50;521989;28;1416;-71
2024/03/17 00:15:08;;;;;;;20.77;13.90;;;;;;;4.82;74.21;93696.97;522003;28;1289;-71
2024/03/17 00:15:24;;;;;;;20.13;13.75;;;;;;;4.83;74.25;93699.19;522872;28;894;-71
2024/03/17 00:15:39;;;;;;;18.67;13.75;;;;;;;4.85;74.10;93702.16;522567;28;1519;-71
2024/03/17 00:15:55;;;;;;;19.83;14.97;;;;;;;4.86;73.92;93698.19;522786;28;907;-71
2024/03/17 00:16:12;;;;;;;24.17;17.00;;;;;;;4.86;73.47;93689.25;521072;28;1396;-71
2024/03/17 00:16:28;;;;;;;28.45;17.52;;;;;;;4.88;74.00;93695.69;522339;28;1317;-71
2024/03/17 00:16:44;;;;;;;25.50;15.90;;;;;;;4.89;73.74;93690.97;522530;28;1265;-71
2024/03/17 00:17:00;;;;;;;21.10;14.55;;;;;;;4.91;73.15;93693.94;522362;28;1515;-71
2024/03/17 00:17:16;;;;;;;22.33;15.20;;;;;;;4.90;73.25;93697.94;522228;28;1581;-71
2024/03/17 00:17:31;;;;;;;24.35;15.70;;;;;;;4.93;73.52;93691.44;521857;28;781;-71
2024/03/17 00:17:47;;;;;;;26.87;16.90;;;;;;;4.94;72.91;93688.19;522518;28;1542;-71
2024/03/17 00:18:02;;;;;;;26.73;18.60;;;;;;;4.94;73.08;93692.94;522280;28;1173;-71
2024/03/17 00:18:18;;;;;;;29.00;20.20;;;;;;;4.97;72.89;93686.44;522854;28;848;-71
2024/03/17 00:18:33;;;;;;;33.83;21.42;;;;;;;4.97;72.60;93691.91;522571;28;1361;-71
2024/03/17 00:18:49;;;;;;;37.63;24.20;;;;;;;4.98;72.45;93694.16;522147;28;1447;-71
2024/03/17 00:19:05;;;;;;;39.50;26.10;;;;;;;4.97;72.20;93691.91;521826;28;1450;-71
2024/03/17 00:19:23;;;;;;;40.17;25.77;;;;;;;4.68;72.11;93663.22;521864;28;1364;-71
2024/03/17 00:19:39;;;;;;;44.03;26.15;;;;;;;4.75;72.19;93690.06;522220;28;1127;-71
2024/03/17 00:19:54;;;;;;;43.00;26.50;;;;;;;4.65;72.24;93683.41;521788;28;1392;-71
2024/03/17 00:20:18;;;;;;;40.80;26.45;;;;;;;4.70;72.88;93690.81;522036;28;1447;-71
2024/03/17 00:20:34;;;;;;;37.88;25.58;;;;;;;4.72;72.86;93693.78;522053;28;1305;-71
2024/03/17 00:20:49;;;;;;;42.37;26.50;;;;;;;4.75;72.65;93692.03;522135;28;1376;-71
2024/03/17 00:21:05;;;;;;;41.58;26.25;;;;;;;4.77;72.65;93692.28;520938;28;1290;-71
2024/03/17 00:21:20;;;;;;;42.93;27.10;;;;;;;4.78;72.61;93694.53;522130;28;1385;-71
2024/03/17 00:21:36;;;;;;;43.70;27.15;;;;;;;4.80;72.34;93685.81;522762;28;910;-71
2024/03/17 00:21:51;;;;;;;43.97;26.53;;;;;;;4.82;72.53;93688.78;522477;28;1325;-71
2024/03/17 00:22:08;;;;;;;43.05;26.05;;;;;;;4.83;72.77;93693.72;521361;28;903;-71
2024/03/17 00:22:24;;;;;;;39.72;24.73;;;;;;;4.85;72.33;93690.50;520768;28;852;-71
2024/03/17 00:22:40;;;;;;;42.28;26.20;;;;;;;4.86;72.30;93689.25;521831;28;1598;-71
2024/03/17 00:22:56;;;;;;;41.83;26.85;;;;;;;4.87;72.09;93693.47;521833;28;1111;-71
2024/03/17 00:23:12;;;;;;;45.08;28.10;;;;;;;4.87;72.51;93691.50;521596;28;1448;-71
2024/03/17 00:23:28;;;;;;;46.47;28.58;;;;;;;4.88;72.54;93690.22;522093;28;1420;-71
2024/03/17 00:23:43;;;;;;;40.57;28.17;;;;;;;4.88;72.33;93684.75;522785;28;840;-71
2024/03/17 00:23:59;;;;;;;38.90;27.92;;;;;;;4.91;72.50;93691.97;523975;28;899;-71
2024/03/17 00:24:14;;;;;;;40.43;27.77;;;;;;;4.93;72.58;93685.97;522168;28;1381;-71
2024/03/17 00:24:34;;;;;;;43.38;28.85;;;;;;;4.94;72.23;93690.19;522199;28;1190;-71
2024/03/17 00:24:50;;;;;;;48.60;31.52;;;;;;;4.85;72.07;93682.31;522427;28;1282;-70
2024/03/17 00:25:07;;;;;;;44.33;29.35;;;;;;;4.75;72.54;93689.31;521125;28;1369;-71
2024/03/17 00:25:23;;;;;;;42.35;27.92;;;;;;;4.74;72.14;93690.56;522478;28;1396;-71
2024/03/17 00:25:39;;;;;;;41.30;28.67;;;;;;;4.72;72.30;93687.59;522342;28;1422;-71
2024/03/17 00:25:55;;;;;;;39.65;28.27;;;;;;;4.68;72.38;93684.38;521732;28;1384;-71
2024/03/17 00:26:10;;;;;;;43.90;28.35;;;;;;;4.61;72.21;93682.94;522423;28;1105;-71
2024/03/17 00:26:27;;;;;;;45.53;29.07;;;;;;;4.58;72.60;93694.84;522812;28;880;-71
2024/03/17 00:26:43;;;;;;;46.72;29.83;;;;;;;4.59;73.01;93697.09;522478;28;1475;-71
2024/03/17 00:26:58;;;;;;;47.60;29.90;;;;;;;4.59;72.51;93694.34;522496;28;1333;-71
2024/03/17 00:27:13;;;;;;;45.63;29.83;;;;;;;4.60;72.77;93693.13;522546;28;1341;-71
2024/03/17 00:27:29;;;;;;;46.67;31.77;;;;;;;4.63;72.76;93698.81;522079;28;1416;-71
2024/03/17 00:27:46;;;;;;;46.55;32.75;;;;;;;4.63;72.46;93686.63;521825;28;1644;-71
2024/03/17 00:28:01;;;;;;;45.55;32.15;;;;;;;4.63;72.99;93698.81;522007;28;1404;-71
2024/03/17 00:28:17;;;;;;;47.05;32.50;;;;;;;4.58;73.03;93692.88;522172;28;1396;-71
2024/03/17 00:28:32;;;;;;;47.58;31.40;;;;;;;4.48;72.73;93686.19;521193;28;2068;-71
2024/03/17 00:28:50;;;;;;;49.50;31.73;;;;;;;4.41;72.78;93697.66;521654;28;1448;-71
2024/03/17 00:29:06;;;;;;;50.38;31.95;;;;;;;4.33;73.30;93691.22;521939;28;1372;-71
2024/03/17 00:29:21;;;;;;;47.42;31.75;;;;;;;4.32;73.65;93697.19;522046;28;1210;-71
2024/03/17 00:29:38;;;;;;;46.10;32.50;;;;;;;4.33;73.22;93690.50;522558;28;1459;-71
2024/03/17 00:29:53;;;;;;;47.63;32.30;;;;;;;4.37;73.33;93688.25;522426;28;1491;-71
2024/03/17 00:30:12;;;;;;;47.25;30.77;;;;;;;4.39;73.10;93681.03;522781;28;831;-71
2024/03/17 00:30:27;;;;;;;49.60;30.83;;;;;;;4.44;72.85;93690.47;522480;28;1321;-71
2024/03/17 00:30:43;;;;;;;51.43;32.13;;;;;;;4.49;72.67;93684.22;522068;28;1325;-71
2024/03/17 00:30:59;;;;;;;49.92;33.03;;;;;;;4.51;72.60;93687.94;521563;28;1466;-71
2024/03/17 00:31:17;;;;;;;49.03;32.60;;;;;;;4.39;72.93;93670.09;521670;28;1271;-71
2024/03/17 00:31:32;;;;;;;48.47;32.10;;;;;;;4.57;72.85;93693.34;521766;28;1297;-71
2024/03/17 00:31:48;;;;;;;50.20;32.60;;;;;;;4.59;72.78;93688.16;521634;28;1290;-71
2024/03/17 00:32:04;;;;;;;52.58;32.92;;;;;;;4.60;72.35;93689.63;522521;28;856;-71
2024/03/17 00:32:20;;;;;;;52.70;32.63;;;;;;;4.59;72.69;93688.88;522282;28;2257;-71
2024/03/17 00:32:35;;;;;;;52.90;33.38;;;;;;;4.60;72.47;93684.91;521875;28;1437;-71
2024/03/17 00:32:50;;;;;;;53.23;32.40;;;;;;;4.57;72.27;93694.09;522040;28;1441;-71
2024/03/17 00:33:06;;;;;;;54.80;32.50;;;;;;;4.52;72.45;93683.97;522284;28;1444;-71
2024/03/17 00:33:22;;;;;;;53.50;32.92;;;;;;;4.51;72.62;93687.19;522401;28;1259;-71
2024/03/17 00:33:37;;;;;;;51.90;33.33;;;;;;;4.47;72.76;93689.44;522674;28;805;-71
2024/03/17 00:33:53;;;;;;;49.63;32.73;;;;;;;4.45;72.96;93686.47;521838;28;1231;-71
2024/03/17 00:34:09;;;;;;;48.28;32.90;;;;;;;4.38;73.32;93686.97;522315;28;1530;-71
2024/03/17 00:34:24;;;;;;;50.95;33.80;;;;;;;4.35;73.12;93688.72;521874;28;1922;-71
2024/03/17 00:34:40;;;;;;;55.80;35.37;;;;;;;4.34;73.38;93687.25;522119;28;1487;-71
2024/03/17 00:34:55;;;;;;;57.78;36.92;;;;;;;4.36;73.16;93690.22;522540;28;1447;-71
2024/03/17 00:35:14;;;;;;;53.17;35.30;;;;;;;4.37;72.98;93690.97;522556;28;1436;-71
2024/03/17 00:35:30;;;;;;;54.53;35.55;;;;;;;4.38;73.55;93684.25;522217;28;1408;-71
2024/03/17 00:35:45;;;;;;;55.33;37.08;;;;;;;4.38;73.19;93692.44;522334;28;1123;-71
2024/03/17 00:36:01;;;;;;;57.07;37.03;;;;;;;4.14;73.46;93651.28;521988;28;1423;-72
2024/03/17 00:36:16;;;;;;;61.33;37.05;;;;;;;4.33;72.94;93691.22;522140;28;1224;-71
2024/03/17 00:36:32;;;;;;;60.60;38.03;;;;;;;4.31;73.43;93687.53;522144;28;1455;-71
2024/03/17 00:36:47;;;;;;;60.95;37.95;;;;;;;4.17;73.44;93666.69;522090;28;1369;-71
2024/03/17 00:37:03;;;;;;;58.30;36.43;;;;;;;4.32;73.23;93686.25;521814;28;1550;-71
2024/03/17 00:37:19;;;;;;;54.45;35.95;;;;;;;4.31;73.17;93690.97;522070;28;1372;-71
2024/03/17 00:37:34;;;;;;;54.47;35.67;;;;;;;4.31;72.97;93682.78;521343;28;1159;-71
2024/03/17 00:37:50;;;;;;;54.90;35.17;;;;;;;4.35;73.53;93688.00;521891;28;1392;-71
2024/03/17 00:38:10;;;;;;;54.35;34.60;;;;;;;4.36;73.23;93684.00;521566;28;1519;-71
2024/03/17 00:38:25;;;;;;;55.00;34.30;;;;;;;4.39;73.50;93689.22;521354;28;1800;-71
2024/03/17 00:38:41;;;;;;;58.90;34.70;;;;;;;4.37;72.94;93680.03;522377;28;1305;-71
2024/03/17 00:38:56;;;;;;;58.67;34.88;;;;;;;4.40;73.20;93682.50;521821;28;1439;-71
2024/03/17 00:39:12;;;;;;;53.77;34.33;;;;;;;4.16;72.79;93648.81;521378;28;1289;-72
2024/03/17 00:39:27;;;;;;;50.85;34.08;;;;;;;4.42;72.80;93688.22;522393;28;797;-71
2024/03/17 00:39:43;;;;;;;56.20;36.30;;;;;;;4.43;73.07;93686.22;522402;28;1345;-71
2024/03/17 00:40:03;;;;;;;57.50;35.65;;;;;;;4.43;73.33;93686.97;523604;28;839;-71
2024/03/17 00:40:18;;;;;;;65.40;35.72;;;;;;;4.41;73.35;93686.72;522985;28;1478;-71
2024/03/17 00:40:33;;;;;;;66.20;37.60;;;;;;;4.40;73.06;93682.50;520448;28;1472;-71
2024/03/17 00:40:50;;;;;;;61.10;36.23;;;;;;;4.39;72.92;93683.75;522069;28;1479;-71
2024/03/17 00:41:06;;;;;;;55.40;34.33;;;;;;;4.39;73.27;93681.03;520812;28;1578;-71
2024/03/17 00:41:21;;;;;;;56.95;35.45;;;;;;;4.38;72.73;93684.25;520386;28;1361;-71
2024/03/17 00:41:37;;;;;;;58.87;36.07;;;;;;;4.36;72.64;93684.75;522269;28;1198;-71
2024/03/17 00:41:52;;;;;;;54.55;35.80;;;;;;;4.35;73.19;93677.78;521959;28;1369;-71
2024/03/17 00:42:08;;;;;;;51.03;35.67;;;;;;;4.35;73.10;93683.25;522489;28;812;-71
2024/03/17 00:42:23;;;;;;;56.13;35.72;;;;;;;4.35;73.03;93683.25;522635;28;1025;-71
2024/03/17 00:42:39;;;;;;;60.23;36.27;;;;;;;4.37;72.63;93677.31;522602;28;1380;-71
2024/03/17 00:42:54;;;;;;;56.50;34.95;;;;;;;4.37;72.89;93689.00;522712;28;1447;-71
2024/03/17 00:43:11;;;;;;;53.13;33.73;;;;;;;4.39;72.95;93688.47;523055;28;798;-71
2024/03/17 00:43:26;;;;;;;50.65;33.00;;;;;;;4.38;72.37;93682.25;522743;28;1510;-71
2024/03/17 00:43:42;;;;;;;49.97;31.47;;;;;;;4.39;72.78;93686.50;522830;28;1388;-71
2024/03/17 00:43:57;;;;;;;49.05;29.45;;;;;;;4.39;72.84;93683.00;522909;28;1261;-71
2024/03/17 00:44:13;;;;;;;44.23;28.13;;;;;;;4.41;72.54;93683.25;522322;28;1455;-71
2024/03/17 00:44:28;;;;;;;45.17;28.15;;;;;;;4.40;72.94;93687.97;521837;28;1513;-71
2024/03/17 00:44:44;;;;;;;46.17;28.57;;;;;;;4.39;73.00;93683.75;522299;28;1089;-71
2024/03/17 00:45:03;;;;;;;40.95;27.48;;;;;;;4.40;72.75;93679.78;522248;28;1554;-71
2024/03/17 00:45:18;;;;;;;42.47;27.70;;;;;;;4.40;72.81;93682.50;521740;28;1293;-71
2024/03/17 00:45:34;;;;;;;46.40;29.83;;;;;;;4.37;72.71;93682.78;521779;28;1290;-71
2024/03/17 00:45:53;;;;;;;48.83;31.90;;;;;;;4.31;72.70;93687.53;522528;28;1504;-71
2024/03/17 00:46:08;;;;;;;51.17;33.63;;;;;;;4.23;72.84;93681.06;521719;28;1504;-71
2024/03/17 00:46:24;;;;;;;56.57;34.43;;;;;;;4.14;73.24;93684.06;522059;28;1459;-71
2024/03/17 00:46:42;;;;;;;54.97;33.13;;;;;;;4.04;73.57;93680.88;521581;28;1467;-71
2024/03/17 00:46:57;;;;;;;49.20;32.03;;;;;;;3.98;74.09;93680.16;521893;28;1404;-71
2024/03/17 00:47:13;;;;;;;44.13;29.37;;;;;;;3.98;73.92;93682.16;522406;28;1380;-71
2024/03/17 00:47:29;;;;;;;36.85;23.25;;;;;;;3.99;73.96;93678.91;522170;28;1415;-71
2024/03/17 00:47:44;;;;;;;33.45;21.30;;;;;;;3.98;74.24;93682.91;522202;28;1345;-71
2024/03/17 00:48:00;;;;;;;30.73;20.03;;;;;;;3.98;73.87;93677.44;522170;28;1487;-71
2024/03/17 00:48:15;;;;;;;27.70;17.67;;;;;;;3.96;74.08;93677.19;522351;28;1281;-71
2024/03/17 00:48:31;;;;;;;28.90;17.17;;;;;;;3.94;73.86;93676.94;521960;28;1578;-71
2024/03/17 00:48:49;;;;;;;26.67;17.02;;;;;;;3.95;74.44;93678.44;522020;28;1364;-71
2024/03/17 00:49:05;;;;;;;23.67;16.15;;;;;;;3.98;73.90;93682.91;522122;28;1415;-71
2024/03/17 00:49:21;;;;;;;19.85;14.55;;;;;;;4.02;74.02;93682.63;522013;28;1286;-71
2024/03/17 00:49:36;;;;;;;18.97;13.43;;;;;;;4.05;73.94;93687.09;522118;28;1420;-71
2024/03/17 00:49:52;;;;;;;20.33;13.23;;;;;;;4.04;74.02;93680.13;522312;28;1388;-71
2024/03/17 00:50:08;;;;;;;19.70;13.57;;;;;;;4.02;73.70;93682.63;522151;28;1349;-71
2024/03/17 00:50:23;;;;;;;21.05;14.55;;;;;;;4.04;74.04;93680.88;522001;28;1432;-71
2024/03/17 00:50:39;;;;;;;22.52;14.40;;;;;;;4.05;73.77;93685.09;522382;28;1423;-71
2024/03/17 00:50:58;;;;;;;21.07;14.37;;;;;;;4.08;73.29;93680.63;522235;28;1519;-71
2024/03/17 00:51:13;;;;;;;23.75;15.57;;;;;;;4.11;73.02;93679.63;522008;28;1483;-71
2024/03/17 00:51:29;;;;;;;24.03;16.00;;;;;;;4.14;73.49;93684.06;522270;28;1344;-71
2024/03/17 00:51:47;;;;;;;20.20;15.02;;;;;;;4.16;72.53;93684.34;522277;28;1345;-70
2024/03/17 00:52:03;;;;;;;20.95;14.55;;;;;;;4.18;72.86;93684.59;521945;28;1328;-71
2024/03/17 00:52:18;;;;;;;22.03;15.00;;;;;;;4.20;72.92;93682.09;522353;28;1286;-71
2024/03/17 00:52:34;;;;;;;21.53;14.93;;;;;;;4.21;72.25;93691.75;522157;28;1448;-71
2024/03/17 00:52:49;;;;;;;20.85;14.98;;;;;;;4.23;71.95;93681.06;521757;28;1491;-70
2024/03/17 00:53:05;;;;;;;23.02;16.15;;;;;;;4.26;71.92;93685.53;521833;28;1384;-71
2024/03/17 00:53:21;;;;;;;22.83;16.53;;;;;;;4.27;72.04;93687.03;522972;28;1452;-71
2024/03/17 00:53:36;;;;;;;21.70;16.60;;;;;;;4.27;71.97;93682.31;521861;28;1475;-71
2024/03/17 00:53:52;;;;;;;24.30;17.17;;;;;;;4.12;71.90;93657.25;523447;28;816;-72
2024/03/17 00:54:07;;;;;;;24.73;17.02;;;;;;;4.29;72.07;93688.00;525279;28;764;-71
2024/03/17 00:54:23;;;;;;;25.40;17.23;;;;;;;4.31;71.66;93676.59;522859;28;1914;-71
2024/03/17 00:54:38;;;;;;;26.15;17.42;;;;;;;4.33;71.39;93688.47;523249;28;910;-71
2024/03/17 00:54:54;;;;;;;23.90;16.90;;;;;;;4.35;71.47;93683.25;522824;28;1452;-71
2024/03/17 00:55:10;;;;;;;24.60;17.63;;;;;;;4.35;71.36;93677.06;522529;28;1451;-71
2024/03/17 00:55:25;;;;;;;28.50;19.67;;;;;;;4.38;71.28;93684.25;521710;28;1415;-71
2024/03/17 00:55:41;;;;;;;30.75;21.88;;;;;;;4.37;71.96;93682.78;522600;28;1568;-71
2024/03/17 00:56:00;;;;;;;30.73;22.43;;;;;;;4.40;71.80;93677.03;522288;28;1436;-71
2024/03/17 00:56:16;;;;;;;30.55;21.52;;;;;;;4.19;71.33;93648.56;522546;28;1340;-71
2024/03/17 00:56:31;;;;;;;30.30;20.10;;;;;;;4.41;71.84;93681.28;522986;28;1063;-71
2024/03/17 00:56:47;;;;;;;29.90;19.52;;;;;;;4.43;71.32;93684.25;522898;28;1360;-71
2024/03/17 00:57:02;;;;;;;31.43;20.20;;;;;;;4.43;71.31;93686.22;522651;28;1277;-71
2024/03/17 00:57:18;;;;;;;34.72;20.90;;;;;;;4.44;71.56;93682.25;522388;28;1397;-71
2024/03/17 00:57:33;;;;;;;31.80;20.93;;;;;;;4.43;71.62;93684.25;522614;28;1483;-71
2024/03/17 00:57:49;;;;;;;31.53;21.87;;;;;;;4.44;71.29;93685.00;522875;28;1432;-71
2024/03/17 00:58:04;;;;;;;33.67;22.47;;;;;;;4.38;71.27;93676.78;521925;28;1569;-71
2024/03/17 00:58:20;;;;;;;35.65;23.90;;;;;;;4.43;71.33;93688.97;522683;28;954;-71
2024/03/17 00:58:36;;;;;;;35.85;24.27;;;;;;;4.43;71.22;93684.25;522912;28;1585;-71
2024/03/17 00:58:52;;;;;;;34.87;24.03;;;;;;;4.44;70.93;93685.72;521626;28;1411;-71
2024/03/17 00:59:08;;;;;;;38.20;26.15;;;;;;;4.45;71.08;93689.19;522778;28;1293;-71
2024/03/17 00:59:23;;;;;;;40.60;27.80;;;;;;;4.46;71.11;93687.97;522697;28;1305;-71
2024/03/17 00:59:38;;;;;;;41.93;28.37;;;;;;;4.47;70.96;93681.22;522476;28;1258;-71
2024/03/17 00:59:54;;;;;;;46.80;30.70;;;;;;;4.48;70.92;93683.47;523152;28;1044;-71
2024/03/17 01:00:11;;;;;;;47.57;31.30;;;;;;;4.49;70.95;93686.94;522767;28;1559;-71
2024/03/17 01:00:27;;;;;;;47.17;30.98;;;;;;;4.50;70.87;93682.97;523282;28;859;-70
2024/03/17 01:00:42;;;;;;;48.77;32.80;;;;;;;4.49;70.72;93684.97;522237;28;1755;-71
2024/03/17 01:00:57;;;;;;;49.27;34.37;;;;;;;4.50;70.74;93682.97;522265;28;1372;-70
2024/03/17 01:01:13;;;;;;;50.95;34.83;;;;;;;4.50;71.09;93678.22;522449;28;1317;-70
2024/03/17 01:01:29;;;;;;;50.53;33.63;;;;;;;4.34;70.85;93657.19;522168;28;1427;-70
2024/03/17 01:01:44;;;;;;;50.47;33.20;;;;;;;4.51;71.08;93681.72;522868;28;1432;-70
2024/03/17 01:01:59;;;;;;;44.92;32.30;;;;;;;4.50;71.34;93682.97;522945;28;1305;-70
2024/03/17 01:02:18;;;;;;;43.37;30.80;;;;;;;4.46;71.29;93672.28;521956;28;1590;-70
2024/03/17 01:02:33;;;;;;;47.30;32.25;;;;;;;4.51;70.85;93682.47;523175;28;812;-70
2024/03/17 01:02:49;;;;;;;44.67;32.50;;;;;;;4.50;71.26;93678.22;523080;28;780;-70
2024/03/17 01:03:04;;;;;;;42.83;31.97;;;;;;;4.47;70.83;93679.25;522626;28;1321;-70
2024/03/17 01:03:20;;;;;;;44.15;31.20;;;;;;;4.48;71.51;93680.00;521139;28;912;-70
2024/03/17 01:03:36;;;;;;;45.80;30.98;;;;;;;4.47;71.21;93690.19;521616;28;1625;-70
2024/03/17 01:03:52;;;;;;;45.73;30.87;;;;;;;4.46;71.29;93679.75;522547;28;1304;-70
2024/03/17 01:04:07;;;;;;;47.83;31.38;;;;;;;4.44;71.82;93685.72;522577;28;1505;-70
2024/03/17 01:04:23;;;;;;;52.38;33.90;;;;;;;4.42;71.25;93680.00;523024;28;1538;-70
2024/03/17 01:04:43;;;;;;;52.87;34.00;;;;;;;4.43;71.91;93684.25;521669;28;1425;-70
2024/03/17 01:04:58;;;;;;;47.33;32.90;;;;;;;4.45;71.41;93684.47;521649;28;1250;-70
2024/03/17 01:05:14;;;;;;;47.53;32.67;;;;;;;4.45;72.08;93683.72;522791;28;1375;-70
2024/03/17 01:05:30;;;;;;;48.80;33.00;;;;;;;4.46;71.89;93682.50;522138;28;1364;-70
2024/03/17 01:05:47;;;;;;;48.80;32.42;;;;;;;4.29;72.00;93662.66;522993;28;1406;-70
2024/03/17 01:06:04;;;;;;;48.22;32.92;;;;;;;4.47;71.48;93681.97;522208;28;1415;-70
2024/03/17 01:06:19;;;;;;;48.55;33.83;;;;;;;4.47;71.39;93684.72;522001;28;1360;-70
2024/03/17 01:06:35;;;;;;;48.70;33.43;;;;;;;4.47;71.56;93683.97;520835;28;1452;-70
2024/03/17 01:06:51;;;;;;;45.10;33.38;;;;;;;4.46;71.80;93683.22;522395;28;1321;-70
2024/03/17 01:07:07;;;;;;;46.88;33.42;;;;;;;4.45;71.43;93679.00;521920;28;1481;-70
2024/03/17 01:07:22;;;;;;;47.90;33.40;;;;;;;4.46;71.67;93675.00;521981;28;1564;-70
2024/03/17 01:07:38;;;;;;;46.80;33.78;;;;;;;4.43;71.97;93688.97;522378;28;1373;-70
2024/03/17 01:07:53;;;;;;;48.67;34.27;;;;;;;4.41;71.58;93684.00;522276;28;1487;-70
2024/03/17 01:08:09;;;;;;;48.67;33.33;;;;;;;4.41;71.59;93680.53;522843;28;1135;-70
2024/03/17 01:08:24;;;;;;;45.17;31.75;;;;;;;4.39;71.96;93683.75;521129;28;906;-70
2024/03/17 01:08:40;;;;;;;46.93;32.40;;;;;;;4.36;71.83;93682.03;521916;28;1397;-70
2024/03/17 01:08:55;;;;;;;51.92;33.47;;;;;;;4.35;71.88;93677.06;521852;28;1475;-70
2024/03/17 01:09:11;;;;;;;50.60;33.27;;;;;;;4.32;71.85;93689.75;523003;28;1286;-71
2024/03/17 01:09:26;;;;;;;48.33;32.87;;;;;;;4.30;72.14;93686.03;522943;28;828;-71
2024/03/17 01:09:42;;;;;;;49.42;33.00;;;;;;;4.27;71.99;93685.03;522424;28;1400;-71
2024/03/17 01:09:57;;;;;;;47.20;31.97;;;;;;;4.26;72.27;93686.28;522459;28;1534;-71
2024/03/17 01:10:13;;;;;;;43.67;30.23;;;;;;;4.24;72.33;93686.06;522026;28;1605;-71
2024/03/17 01:10:29;;;;;;;42.97;29.27;;;;;;;4.21;72.41;93689.78;522284;28;789;-71
2024/03/17 01:10:49;;;;;;;41.05;28.75;;;;;;;4.21;72.21;93683.56;521834;28;1425;-71
2024/03/17 01:11:08;;;;;;;43.13;30.42;;;;;;;4.19;72.17;93680.59;522179;28;1400;-71
2024/03/17 01:11:24;;;;;;;43.63;30.88;;;;;;;4.17;72.15;93680.34;521885;28;1400;-70
2024/03/17 01:11:40;;;;;;;43.92;31.38;;;;;;;4.16;72.19;93678.88;522861;28;1404;-71
2024/03/17 01:11:55;;;;;;;43.50;30.17;;;;;;;4.12;72.55;93676.38;522790;28;1253;-71
2024/03/17 01:12:11;;;;;;;41.60;27.33;;;;;;;4.16;72.33;93684.34;522211;28;1412;-71
2024/03/17 01:12:26;;;;;;;35.35;23.38;;;;;;;4.15;72.30;93674.66;522981;28;1392;-71
2024/03/17 01:12:42;;;;;;;28.73;20.37;;;;;;;4.15;71.98;93683.59;522950;28;1462;-71
2024/03/17 01:12:58;;;;;;;29.13;20.23;;;;;;;4.15;71.88;93677.38;522329;28;1613;-72
2024/03/17 01:13:13;;;;;;;26.57;18.90;;;;;;;4.14;72.47;93684.81;522131;28;852;-71
2024/03/17 01:13:30;;;;;;;23.10;16.73;;;;;;;4.14;72.00;93676.63;522564;28;1380;-71
2024/03/17 01:13:46;;;;;;;21.13;15.40;;;;;;;4.14;72.45;93682.09;522240;28;1379;-71
2024/03/17 01:14:01;;;;;;;20.27;14.60;;;;;;;3.98;72.04;93660.28;522815;28;1357;-71
2024/03/17 01:14:17;;;;;;;21.33;14.57;;;;;;;4.11;71.72;93685.84;523010;28;1972;-71
2024/03/17 01:14:33;;;;;;;20.80;13.68;;;;;;;4.05;72.29;93682.38;522911;28;1694;-71
2024/03/17 01:14:48;;;;;;;19.02;13.27;;;;;;;4.01;71.80;93681.88;522388;28;1246;-71
2024/03/17 01:15:05;;;;;;;18.50;13.30;;;;;;;3.95;72.19;93681.16;522346;28;1420;-71
2024/03/17 01:15:21;;;;;;;19.60;13.77;;;;;;;3.89;72.45;93679.69;522742;28;1352;-71
2024/03/17 01:15:37;;;;;;;19.42;14.75;;;;;;;3.85;72.61;93679.94;523151;28;823;-71
2024/03/17 01:15:53;;;;;;;19.27;14.60;;;;;;;3.82;72.56;93678.19;522765;28;1419;-71
2024/03/17 01:16:08;;;;;;;18.98;13.77;;;;;;;3.80;72.42;93684.16;521813;28;1447;-72